Sunday, May 27, 2018, 3:22 PM GMT
Back to Local

CYGK, Kingston, Ont.

Location: , , Canada Lat: 44.217
Local Time: 3:22 PM GMT (15:22 GMT) Lon: -76.6
Time Zone: GMT Elev: 305 ft

Show me the last for .
Show Decoded

2018-05-27 15:00 METAR CYGK 271500Z 14006KT 110V180 15SM SCT120 BKN250 23/18 A2997 RMK AC3CI2
                 SLP148 DENSITY ALT 1300FT =
2018-05-27 14:00 METAR CYGK 271400Z 11004KT 060V180 15SM SCT090 BKN160 BKN250 22/17 A2996 RMK
                 AC3AC2CI1 SLP147 DENSITY ALT 1100FT =
2018-05-27 13:00 METAR CYGK 271300Z 06006KT 15SM SCT120 BKN240 20/15 A2995 RMK AC3CI2 SLP144
                 DENSITY ALT 1000FT =
2018-05-27 12:00 METAR CYGK 271200Z 04007KT 15SM SCT120 BKN250 19/14 A2994 RMK AC4CI2 SLP140
                 DENSITY ALT 900FT =
2018-05-27 11:00 METAR CYGK 271100Z 04007KT 15SM BKN130 BKN250 17/14 A2993 RMK AC5CI2 SLP136
                 DENSITY ALT 700FT =
2018-05-27 10:00 METAR CYGK 271000Z 04006KT 15SM SCT130 BKN160 17/14 A2991 RMK AC4ACC2 SLP130
                 DENSITY ALT 700FT =
2018-05-27 03:00 METAR CYGK 270300Z 07010KT 15SM FEW110 BKN170 20/17 A2989 RMK AC2AC5 LAST STFD
                 OBS/NEXT 271000 UTC SLP123 DENSITY ALT 1100FT =
2018-05-27 02:00 METAR CYGK 270200Z 04003KT 15SM FEW100 BKN170 BKN240 21/17 A2989 RMK AC2AC3CI2
                 SLP123 DENSITY ALT 1100FT =
2018-05-27 01:00 METAR CYGK 270100Z 03003KT 15SM FEW060 OVC160 20/16 A2988 RMK SC2AC6 SLP119
                 DENSITY ALT 1000FT =
2018-05-27 00:00 METAR CYGK 270000Z VRB02KT 15SM FEW035TCU BKN160 OVC250 20/17 A2986 RMK
                 TCU2AC5CI1 SLP114 DENSITY ALT 1100FT =
2018-05-26 23:00 METAR CYGK 262300Z 23002KT 15SM FEW040TCU BKN200 21/16 A2984 RMK TCU2CI5 SLP107
                 DENSITY ALT 1200FT =
2018-05-26 22:00 METAR CYGK 262200Z 00000KT 15SM FEW040 BKN250 19/15 A2983 RMK CU2CI5 SLP102
                 DENSITY ALT 1000FT =
2018-05-26 21:00 METAR CYGK 262100Z 19003KT 15SM FEW040 BKN210 19/14 A2982 RMK CU2CI5 SLP100
                 DENSITY ALT 900FT =
2018-05-26 20:00 METAR CYGK 262000Z 15003KT 15SM FEW035 SCT100 BKN210 19/14 A2981 RMK CU2AC1CI4
                 SLP097 DENSITY ALT 1000FT =
2018-05-26 19:00 METAR CYGK 261900Z 16005KT 140V200 15SM FEW035 SCT160 BKN250 17/13 A2981 RMK
                 CU2AC2CI3 SLP098 DENSITY ALT 700FT =
2018-05-26 18:00 METAR CYGK 261800Z 17007KT 15SM FEW034 BKN140 BKN220 19/14 A2981 RMK CU2AC3CI2
                 SLP095 DENSITY ALT 1000FT =
2018-05-26 17:00 METAR CYGK 261700Z 17004KT 15SM SCT035 BKN120 BKN220 18/13 A2981 RMK CU3AC2CI1
                 SLP096 DENSITY ALT 900FT =
2018-05-26 16:00 METAR CYGK 261600Z 18006KT 15SM FEW030 BKN100 OVC220 17/13 A2980 RMK CU1AC5CI2
                 SLP093 DENSITY ALT 800FT =

Support USWX by starting your Amazon purchase here.